NCAR-RAP Real-Time Weather Data

Output produced by METARs form (12 August 2020  18:40 UTC)
found at http://weather.rap.ucar.edu/surface/
 
KLOU 121753Z 06003KT 10SM CLR 30/21 A3005 RMK AO2 SLP169 T03000211 10300 20233 56005
KLOU 121653Z 00000KT 10SM FEW028 29/21 A3006 RMK AO2 SLP171 T02940211
KLOU 121553Z 09003KT 10SM CLR 28/21 A3006 RMK AO2 SLP172 T02830211
KLOU 121453Z 00000KT 10SM CLR 28/21 A3007 RMK AO2 SLP175 T02780206 51005
KLOU 121353Z 00000KT 10SM CLR 27/21 A3006 RMK AO2 SLP173 T02720211
KLOU 121253Z 00000KT 10SM OVC033 25/21 A3007 RMK AO2 SLP175 T02500211
KLOU 121153Z 00000KT 10SM CLR 23/21 A3005 RMK AO2 SLP171 T02330211 10244 20222 53012
KLOU 121053Z 00000KT 10SM SCT032 23/21 A3004 RMK AO2 SLP165 T02330211
KLOU 120953Z AUTO 02003KT 10SM CLR 23/21 A3003 RMK AO2 SLP162 T02280211 TSNO
KLOU 120853Z AUTO 00000KT 9SM CLR 23/22 A3002 RMK AO2 SLP157 T02330217 55002
KLOU 120753Z AUTO 00000KT 10SM CLR 23/21 A3001 RMK AO2 SLP156 T02280211
KLOU 120653Z AUTO 00000KT 10SM SCT040 24/22 A3002 RMK AO2 SLP157 T02390217
KLOU 120553Z AUTO 00000KT 10SM OVC033 24/22 A3002 RMK AO2 SLP160 T02440217 10289 20239 51008
KLOU 120453Z AUTO 33003KT 10SM SCT033 25/22 A3002 RMK AO2 SLP159 T02500217 403170206
KLOU 120353Z AUTO 00000KT 10SM BKN032 24/21 A3002 RMK AO2 SLP158 T02440211
KLOU 120253Z AUTO 00000KT 10SM CLR 25/21 A3000 RMK AO2 SLP153 T02500211 53010
KLOU 120153Z 28003KT 10SM CLR 27/21 A2999 RMK AO2 SLP148 T02670206
KLOU 120053Z 29004KT 10SM FEW048 28/21 A2997 RMK AO2 SLP145 T02780206
KLOU 112353Z 27006KT 10SM BKN046 29/21 A2997 RMK AO2 SLP142 T02890206 10317 20289 55001
KLOU 112253Z 28007KT 10SM FEW044 31/21 A2997 RMK AO2 SLP142 T03060206
KLOU 112153Z VRB04KT 10SM FEW045 31/20 A2997 RMK AO2 SLP142 T03060200
KLOU 112053Z 28003KT 10SM FEW042 31/20 A2997 RMK AO2 SLP144 T03060200 58014
KLOU 111953Z 24003KT 10SM CLR 30/20 A2998 RMK AO2 SLP148 T03000200
KLOU 111853Z 27004KT 10SM CLR 29/20 A3000 RMK AO2 SLP154 T02940200
KLOU 111753Z 25005KT 10SM SCT037 29/20 A3001 RMK AO2 SLP158 60000 T02940200 10300 20228 50000
KLOU 111653Z 25006KT 10SM SCT035 28/20 A3002 RMK AO2 SLP160 T02830200
KLOU 111553Z 24004KT 10SM CLR 27/19 A3002 RMK AO2 SLP159 T02720194
KLOU 111453Z 26003KT 10SM CLR 27/21 A3001 RMK AO2 SLP158 60000 T02670206 51008
KLOU 111353Z 24004KT 10SM CLR 25/21 A3001 RMK AO2 SLP155 T02500206
KLOU 111253Z 00000KT 10SM CLR 24/21 A3000 RMK AO2 RAB02E15 SLP153 P0000 T02390206
KLOU 111153Z 00000KT 10SM CLR 23/20 A2999 RMK AO2 SLP148 70002 T02280200 10233 20206 51008
KLOU 111053Z 00000KT 10SM CLR 21/19 A2999 RMK AO2 SLP148 T02110189
KLOU 110953Z AUTO 00000KT 10SM CLR 22/19 A2997 RMK AO2 SLP144 T02170189
KLOU 110853Z AUTO 20007KT 10SM CLR 22/19 A2996 RMK AO2 SLP141 T02170194 55010
KLOU 110753Z AUTO 17007KT 10SM CLR 22/19 A2995 RMK AO2 SLP136 T02220194
KLOU 110653Z AUTO 18007KT 10SM CLR 22/19 A2995 RMK AO2 SLP137 T02220194
KLOU 110553Z AUTO 16007KT 10SM FEW012 22/19 A2999 RMK AO2 SLP151 60001 T02220194 10300 20222 55014
KLOU 110453Z AUTO 10003KT 10SM CLR 22/19 A2999 RMK AO2 SLP151 T02220194 403110211
KLOU 110415Z AUTO 00000KT 10SM SCT008 SCT060 22/19 A3002 RMK AO2 T02220194
KLOU 110353Z AUTO 32004KT 10SM FEW060 22/20 A3003 RMK AO2 RAE09 SLP165 P0001 T02220200
KLOU 110331Z AUTO 03010G22KT 10SM SCT010 22/20 A3002 RMK AO2 LTG DSNT ALQDS RAE09 P0001 T02220200
KLOU 110314Z AUTO 02011G15KT 10SM BKN011 BKN080 BKN100 23/20 A3003 RMK AO2 LTG DSNT ALQDS RAE09 P0001 T02280200
KLOU 110253Z AUTO 35009G27KT 9SM VCTS RA FEW025 BKN047 OVC085 23/19 A3004 RMK AO2 PK WND 33031/0233 WSHFT 0224 LTG DSNT ALQDS RAB47 SLP166 P0000 60000 T02280194 51030
KLOU 110239Z AUTO 35011G31KT 10SM SCT025 BKN039 OVC095 24/19 A3003 RMK AO2 PK WND 33031/0233 WSHFT 0224 LTG DSNT W-NE T02440189
KLOU 110229Z AUTO 33015G30KT 10SM VCTS SCT026 BKN039 BKN095 26/20 A3003 RMK AO2 PK WND 32030/0227 LTG DSNT N AND NE PRESRR T02610200
KLOU 110153Z 17008KT 10SM FEW040 BKN048 BKN100 28/22 A2996 RMK AO2 LTG DSNT W-N SLP140 T02780222
KLOU 110053Z 18006KT 10SM BKN095 28/23 A2995 RMK AO2 SLP135 T02830233
KLOU 102353Z 16010KT 10SM CLR 30/23 A2991 RMK AO2 SLP122 T03000233 10311 20272 58019
KLOU 102253Z 16007KT 10SM SCT030 31/24 A2994 RMK AO2 SLP130 T03110239
KLOU 102153Z 17007KT 10SM FEW028 31/23 A2995 RMK AO2 SLP135 T03060233
KLOU 102053Z 15009G16KT 10SM FEW028 31/23 A2997 RMK AO2 SLP141 T03060228 56028
KLOU 101953Z AUTO 18008KT 10SM CLR 30/23 A2998 RMK AO2 SLP148 T03000228
KLOU 101853Z 14008KT 10SM CLR 29/22 A3002 RMK AO2 SLP158 T02940217